createdAt,value
2022-09-21T00:01:40.541Z,14.75
2022-09-21T00:04:09.104Z,14.75
2022-09-21T00:06:38.340Z,14.73
2022-09-21T00:09:09.503Z,14.72
2022-09-21T00:11:38.442Z,14.70
2022-09-21T00:14:10.723Z,14.68
2022-09-21T00:16:40.372Z,14.67
2022-09-21T00:19:08.977Z,14.67
2022-09-21T00:21:39.017Z,14.66
2022-09-21T00:24:09.673Z,14.65
2022-09-21T00:26:38.092Z,14.64
2022-09-21T00:29:06.964Z,14.61
2022-09-21T00:31:35.585Z,14.60
2022-09-21T00:34:07.801Z,14.57
2022-09-21T00:36:36.668Z,14.54
2022-09-21T00:39:05.645Z,14.52
2022-09-21T00:41:36.095Z,14.48
2022-09-21T00:44:33.251Z,14.43
2022-09-21T00:47:10.953Z,14.41
2022-09-21T00:49:40.435Z,14.40
2022-09-21T00:52:10.545Z,14.39
2022-09-21T00:54:44.385Z,14.36
2022-09-21T00:57:15.625Z,14.34
2022-09-21T00:59:46.351Z,14.32
2022-09-21T01:02:15.543Z,14.31
2022-09-21T01:04:44.460Z,14.29
2022-09-21T01:07:18.247Z,14.26
2022-09-21T01:09:51.179Z,14.24
2022-09-21T01:12:40.297Z,14.21
2022-09-21T01:15:30.303Z,14.16
2022-09-21T01:18:10.179Z,14.15
2022-09-21T01:21:19.708Z,14.08
2022-09-21T01:24:38.911Z,14.03
2022-09-21T01:27:48.101Z,14.03
2022-09-21T01:30:20.300Z,14.03
2022-09-21T01:32:55.494Z,14.06
2022-09-21T01:35:29.964Z,14.09
2022-09-21T01:38:03.493Z,14.11
2022-09-21T01:40:36.180Z,14.13
2022-09-21T01:43:08.167Z,14.17
2022-09-21T01:45:42.579Z,14.20
2022-09-21T01:48:11.290Z,14.24
2022-09-21T01:50:46.848Z,14.24
2022-09-21T01:53:22.774Z,14.28
2022-09-21T01:55:54.664Z,14.31
2022-09-21T01:58:32.119Z,14.34
2022-09-21T02:01:02.371Z,14.40
2022-09-21T02:03:37.422Z,14.46
2022-09-21T02:06:08.126Z,14.52
2022-09-21T02:08:37.469Z,14.58
2022-09-21T02:11:07.437Z,14.61
2022-09-21T02:13:39.470Z,14.62
2022-09-21T02:16:35.451Z,14.62
2022-09-21T02:19:15.976Z,14.64
2022-09-21T02:21:58.487Z,14.64
2022-09-21T02:24:41.330Z,14.66
2022-09-21T02:27:29.552Z,14.67
2022-09-21T02:30:09.009Z,14.71
2022-09-21T02:32:51.414Z,14.73
2022-09-21T02:35:33.112Z,14.74
2022-09-21T02:38:12.983Z,14.75
2022-09-21T02:40:50.432Z,14.74
2022-09-21T02:43:24.266Z,14.74
2022-09-21T02:45:57.856Z,14.74
2022-09-21T02:48:34.379Z,14.75
2022-09-21T02:51:09.761Z,14.76
2022-09-21T02:53:41.969Z,14.77
2022-09-21T02:56:12.994Z,14.79
2022-09-21T02:58:46.619Z,14.78
2022-09-21T03:01:17.864Z,14.80
2022-09-21T03:03:47.726Z,14.81
2022-09-21T03:06:16.149Z,14.82
2022-09-21T03:08:45.417Z,14.83
2022-09-21T03:11:18.428Z,14.84
2022-09-21T03:13:46.970Z,14.87
2022-09-21T03:16:15.553Z,14.89
2022-09-21T03:18:44.513Z,14.90
2022-09-21T03:21:14.903Z,14.92
2022-09-21T03:23:43.368Z,14.93
2022-09-21T03:26:11.733Z,14.94
2022-09-21T03:28:40.049Z,14.97
2022-09-21T03:31:08.412Z,14.98
2022-09-21T03:33:36.745Z,14.97
2022-09-21T03:36:05.434Z,14.96
2022-09-21T03:38:35.218Z,14.95
2022-09-21T03:41:03.571Z,14.94
2022-09-21T03:43:32.171Z,14.93
2022-09-21T03:46:00.912Z,14.89
2022-09-21T03:48:29.299Z,14.87
2022-09-21T03:50:58.347Z,14.81
2022-09-21T03:53:26.669Z,14.77
2022-09-21T03:55:56.391Z,14.71
2022-09-21T03:58:24.755Z,14.66
2022-09-21T04:00:53.064Z,14.60
2022-09-21T04:03:21.339Z,14.54
2022-09-21T04:05:49.863Z,14.46
2022-09-21T04:08:18.697Z,14.42
2022-09-21T04:10:46.991Z,14.36
2022-09-21T04:13:16.666Z,14.31
2022-09-21T04:15:45.019Z,14.27
2022-09-21T04:18:13.620Z,14.21
2022-09-21T04:20:42.225Z,14.18
2022-09-21T04:23:10.539Z,14.14
2022-09-21T04:25:38.891Z,14.11
2022-09-21T04:28:07.623Z,14.08
2022-09-21T04:30:38.070Z,14.05
2022-09-21T04:33:06.648Z,14.03
2022-09-21T04:35:34.985Z,14.02
2022-09-21T04:38:03.424Z,13.99
2022-09-21T04:40:32.354Z,13.98
2022-09-21T04:43:01.009Z,13.96
2022-09-21T04:45:29.356Z,13.93
2022-09-21T04:47:59.039Z,13.92
2022-09-21T04:50:28.027Z,13.92
2022-09-21T04:52:58.518Z,13.91
2022-09-21T04:55:26.907Z,13.91
2022-09-21T04:57:55.192Z,13.91
2022-09-21T05:00:23.604Z,13.91
2022-09-21T05:02:52.070Z,13.92
2022-09-21T05:05:21.956Z,13.93
2022-09-21T05:07:50.269Z,13.93
2022-09-21T05:10:17.851Z,13.93
2022-09-21T05:12:46.548Z,13.95
2022-09-21T05:15:15.138Z,13.96
2022-09-21T05:17:43.534Z,13.97
2022-09-21T05:20:12.713Z,13.99
2022-09-21T05:22:42.429Z,14.00
2022-09-21T05:25:11.782Z,14.00
2022-09-21T05:27:40.108Z,14.00
2022-09-21T05:30:11.011Z,14.00
2022-09-21T05:32:49.115Z,14.01
2022-09-21T05:35:27.497Z,14.03
2022-09-21T05:38:05.360Z,14.06
2022-09-21T05:40:35.334Z,14.10
2022-09-21T05:43:04.425Z,14.14
2022-09-21T05:45:34.289Z,14.19
2022-09-21T05:48:15.015Z,14.25
2022-09-21T05:50:55.364Z,14.31
2022-09-21T05:53:49.664Z,14.38
2022-09-21T05:56:44.212Z,14.47
2022-09-21T05:59:40.501Z,14.56
2022-09-21T06:02:26.713Z,14.64
2022-09-21T06:04:57.492Z,14.71
2022-09-21T06:07:26.094Z,14.81
2022-09-21T06:09:55.831Z,14.91
2022-09-21T06:12:24.186Z,15.03
2022-09-21T06:14:52.506Z,15.10
2022-09-21T06:17:20.918Z,15.20
2022-09-21T06:19:49.206Z,15.29
2022-09-21T06:22:17.516Z,15.40
2022-09-21T06:24:45.858Z,15.47
2022-09-21T06:27:15.827Z,15.55
2022-09-21T06:29:44.157Z,15.63
2022-09-21T06:32:12.662Z,15.68
2022-09-21T06:34:41.038Z,15.70
2022-09-21T06:37:09.566Z,15.69
2022-09-21T06:39:38.064Z,15.66
2022-09-21T06:42:06.626Z,15.64
2022-09-21T06:44:36.286Z,15.62
2022-09-21T06:47:04.906Z,15.61
2022-09-21T06:49:33.261Z,15.61
2022-09-21T06:52:01.753Z,15.64
2022-09-21T06:54:30.096Z,15.69
2022-09-21T06:57:00.211Z,15.75
2022-09-21T06:59:28.800Z,15.78
2022-09-21T07:01:58.771Z,15.89
2022-09-21T07:04:29.042Z,15.99
2022-09-21T07:06:57.842Z,16.06
2022-09-21T07:12:15.066Z,16.19
2022-09-21T07:14:44.470Z,16.21
2022-09-21T07:17:16.083Z,16.22
2022-09-21T07:19:44.572Z,16.25
2022-09-21T07:22:13.007Z,16.32
2022-09-21T07:24:41.380Z,16.37
2022-09-21T07:27:09.727Z,16.51
2022-09-21T07:29:38.129Z,16.64
2022-09-21T07:32:06.913Z,16.81
2022-09-21T07:34:38.187Z,17.00
2022-09-21T07:37:07.066Z,17.19
2022-09-21T07:39:35.659Z,17.32
2022-09-21T07:42:04.028Z,17.42
2022-09-21T07:44:32.519Z,17.54
2022-09-21T07:47:01.378Z,17.69
2022-09-21T07:49:29.764Z,17.74
2022-09-21T07:52:03.865Z,17.70
2022-09-21T07:54:33.804Z,17.78
2022-09-21T07:57:19.482Z,17.87
2022-09-21T07:59:47.864Z,17.99
2022-09-21T08:02:16.478Z,18.14
2022-09-21T08:04:44.932Z,18.25
2022-09-21T08:07:14.655Z,18.43
2022-09-21T08:09:43.134Z,18.58
2022-09-21T08:12:11.699Z,18.66
2022-09-21T08:14:40.787Z,18.77
2022-09-21T08:17:09.159Z,18.94
2022-09-21T08:19:37.727Z,19.13
2022-09-21T08:22:06.529Z,19.29
2022-09-21T08:24:37.714Z,19.37
2022-09-21T08:27:07.981Z,19.36
2022-09-21T08:29:36.722Z,19.19
2022-09-21T08:32:05.757Z,19.05
2022-09-21T08:34:34.225Z,18.88
2022-09-21T08:37:02.611Z,18.81
2022-09-21T08:39:30.998Z,18.81
2022-09-21T08:42:16.516Z,18.80
2022-09-21T08:44:51.176Z,18.78
2022-09-21T08:47:25.579Z,18.76
2022-09-21T08:49:59.494Z,18.81
2022-09-21T08:52:28.426Z,18.96
2022-09-21T08:55:02.862Z,18.99
2022-09-21T08:57:35.344Z,19.01
2022-09-21T09:00:09.060Z,19.00
2022-09-21T09:02:53.888Z,18.98
2022-09-21T09:05:40.631Z,18.98
2022-09-21T09:08:37.417Z,19.03
2022-09-21T09:11:21.333Z,19.03
2022-09-21T09:14:12.871Z,19.03
2022-09-21T09:16:53.883Z,19.07
2022-09-21T09:19:28.884Z,19.15
2022-09-21T09:21:58.037Z,19.18
2022-09-21T09:24:38.174Z,19.18
2022-09-21T09:27:15.373Z,19.24
2022-09-21T09:29:52.731Z,19.26
2022-09-21T09:32:25.583Z,19.27
2022-09-21T09:35:01.362Z,19.30
2022-09-21T09:37:37.940Z,19.41
2022-09-21T09:40:08.816Z,19.59
2022-09-21T09:42:50.118Z,19.79
2022-09-21T09:45:39.741Z,19.94
2022-09-21T09:48:35.575Z,20.03
2022-09-21T09:51:04.001Z,20.11
2022-09-21T09:53:33.990Z,20.17
2022-09-21T09:56:02.966Z,20.26
2022-09-21T09:58:40.480Z,20.36
2022-09-21T10:01:10.373Z,20.41
2022-09-21T10:03:38.755Z,20.47
2022-09-21T10:06:12.904Z,20.51
2022-09-21T10:08:46.618Z,20.49
2022-09-21T10:11:17.374Z,20.51
2022-09-21T10:13:48.559Z,20.55
2022-09-21T10:16:24.400Z,20.58
2022-09-21T10:18:56.478Z,20.70
2022-09-21T10:21:27.635Z,20.78
2022-09-21T10:24:00.618Z,20.79
2022-09-21T10:26:33.902Z,20.79
2022-09-21T10:29:17.903Z,20.85
2022-09-21T10:31:58.781Z,20.99
2022-09-21T10:34:29.135Z,21.18
2022-09-21T10:37:00.195Z,21.35
2022-09-21T10:39:31.700Z,21.57
2022-09-21T10:42:05.746Z,21.72
2022-09-21T10:44:42.045Z,21.80
2022-09-21T10:47:23.525Z,21.80
2022-09-21T10:49:54.955Z,21.98
2022-09-21T10:52:33.307Z,22.23
2022-09-21T10:55:02.437Z,22.47
2022-09-21T10:57:33.479Z,22.66
2022-09-21T11:00:29.382Z,22.82
2022-09-21T11:03:02.730Z,22.86
2022-09-21T11:05:36.551Z,22.76
2022-09-21T11:08:12.566Z,22.85
2022-09-21T11:10:52.313Z,23.17
2022-09-21T11:13:30.988Z,23.50
2022-09-21T11:16:11.455Z,23.93
2022-09-21T11:18:50.949Z,24.36
2022-09-21T11:21:37.504Z,24.53
2022-09-21T11:24:15.754Z,24.56
2022-09-21T11:26:51.778Z,24.55
2022-09-21T11:32:20.043Z,24.25
2022-09-21T11:35:27.742Z,24.15
2022-09-21T11:38:13.044Z,24.41
2022-09-21T11:41:05.890Z,25.00
2022-09-21T11:44:10.012Z,25.61
2022-09-21T11:46:52.824Z,26.28
2022-09-21T11:49:41.239Z,26.32
2022-09-21T11:52:40.225Z,25.99
2022-09-21T11:55:44.606Z,25.41
2022-09-21T11:58:25.980Z,25.03
2022-09-21T12:01:07.343Z,25.06
2022-09-21T12:04:03.571Z,25.48
2022-09-21T12:06:51.790Z,26.14
2022-09-21T12:09:52.006Z,26.64
2022-09-21T12:12:25.764Z,27.31
2022-09-21T12:15:03.929Z,27.95
2022-09-21T12:17:50.200Z,28.49
2022-09-21T12:20:29.104Z,29.12
2022-09-21T12:23:03.267Z,29.63
2022-09-21T12:25:39.775Z,30.28
2022-09-21T12:28:17.576Z,30.74
2022-09-21T12:30:53.903Z,30.67
2022-09-21T12:33:33.248Z,30.42
2022-09-21T12:36:11.468Z,30.44
2022-09-21T12:38:47.165Z,30.40
2022-09-21T12:41:23.976Z,30.51
2022-09-21T12:44:01.435Z,30.48
2022-09-21T12:46:35.874Z,30.67
2022-09-21T12:49:14.342Z,30.86
2022-09-21T12:51:47.700Z,31.15
2022-09-21T12:54:29.157Z,31.54
2022-09-21T12:57:42.521Z,31.99
2022-09-21T13:00:15.007Z,32.24
2022-09-21T13:02:49.427Z,32.32
2022-09-21T13:05:31.427Z,32.47
2022-09-21T13:08:19.920Z,32.61
2022-09-21T13:10:59.047Z,32.96
2022-09-21T13:13:35.167Z,33.51
2022-09-21T13:16:05.424Z,33.77
2022-09-21T13:18:36.660Z,33.73
2022-09-21T13:21:18.551Z,33.39
2022-09-21T13:23:56.208Z,33.37
2022-09-21T13:26:38.387Z,33.66
2022-09-21T13:29:33.826Z,33.73
2022-09-21T13:32:04.742Z,33.07
2022-09-21T13:34:36.369Z,32.84
2022-09-21T13:37:35.206Z,32.29
2022-09-21T13:40:50.323Z,32.23
2022-09-21T13:43:48.267Z,31.95
2022-09-21T13:46:53.893Z,31.10
2022-09-21T13:49:39.045Z,30.31
2022-09-21T13:52:22.702Z,30.02
2022-09-21T13:54:56.601Z,29.78
2022-09-21T13:57:36.951Z,29.32
2022-09-21T14:00:37.563Z,28.59
2022-09-21T14:03:22.974Z,27.97
2022-09-21T14:05:55.566Z,27.31
2022-09-21T14:08:31.411Z,26.63
2022-09-21T14:11:05.700Z,26.07
2022-09-21T14:13:37.855Z,25.61
2022-09-21T14:16:52.031Z,25.11
2022-09-21T14:20:08.093Z,24.52
2022-09-21T14:22:45.465Z,24.18
2022-09-21T14:25:51.763Z,23.85
2022-09-21T14:28:36.574Z,23.73
2022-09-21T14:31:10.003Z,23.57
2022-09-21T14:33:48.405Z,23.36
2022-09-21T14:36:23.893Z,23.14
2022-09-21T14:38:58.324Z,22.93
2022-09-21T14:41:34.569Z,22.78
2022-09-21T14:44:03.471Z,22.62
2022-09-21T14:47:06.407Z,22.41
2022-09-21T14:50:07.502Z,22.18
2022-09-21T14:52:56.983Z,22.05
2022-09-21T14:55:34.206Z,21.84
2022-09-21T14:58:31.442Z,21.62
2022-09-21T15:01:23.279Z,21.39
2022-09-21T15:04:11.564Z,21.25
2022-09-21T15:07:05.783Z,21.12
2022-09-21T15:10:16.177Z,20.89
2022-09-21T15:12:53.673Z,20.75
2022-09-21T15:15:35.594Z,20.62
2022-09-21T15:18:20.113Z,20.57
2022-09-21T15:21:03.619Z,20.46
2022-09-21T15:23:39.307Z,20.38
2022-09-21T15:26:14.820Z,20.31
2022-09-21T15:29:08.427Z,20.27
2022-09-21T15:31:39.712Z,20.25
2022-09-21T15:34:11.155Z,20.22
2022-09-21T15:36:43.133Z,20.22
2022-09-21T15:39:25.548Z,20.16
2022-09-21T15:42:22.918Z,20.14
2022-09-21T15:45:06.134Z,20.16
2022-09-21T15:47:35.284Z,20.13
2022-09-21T15:50:04.143Z,20.11
2022-09-21T15:52:38.986Z,20.05
2022-09-21T15:55:21.660Z,19.99
2022-09-21T15:57:56.434Z,19.95
2022-09-21T16:00:28.204Z,19.91
2022-09-21T16:03:07.588Z,19.86
2022-09-21T16:05:48.605Z,19.82
2022-09-21T16:08:34.573Z,19.78
2022-09-21T16:11:23.262Z,19.74
2022-09-21T16:14:23.180Z,19.69
2022-09-21T16:17:22.352Z,19.65
2022-09-21T16:20:19.836Z,19.61
2022-09-21T16:22:52.445Z,19.64
2022-09-21T16:25:32.543Z,19.64
2022-09-21T16:28:03.820Z,19.66
2022-09-21T16:30:47.479Z,19.64
2022-09-21T16:33:37.083Z,19.60
2022-09-21T16:36:07.035Z,19.58
2022-09-21T16:38:36.240Z,19.54
2022-09-21T16:41:04.764Z,19.47
2022-09-21T16:43:34.227Z,19.40
2022-09-21T16:46:05.973Z,19.31
2022-09-21T16:48:34.358Z,19.24
2022-09-21T16:51:03.009Z,19.16
2022-09-21T16:53:31.420Z,19.08
2022-09-21T16:55:59.818Z,18.99
2022-09-21T16:58:28.242Z,18.91
2022-09-21T17:01:00.803Z,18.83
2022-09-21T17:03:31.714Z,18.76
2022-09-21T17:06:00.080Z,18.67
2022-09-21T17:08:30.201Z,18.60
2022-09-21T17:11:00.080Z,18.52
2022-09-21T17:13:30.270Z,18.45
2022-09-21T17:16:00.010Z,18.37
2022-09-21T17:18:29.220Z,18.30
2022-09-21T17:20:59.147Z,18.24
2022-09-21T17:23:29.295Z,18.20
2022-09-21T17:25:57.682Z,18.15
2022-09-21T17:28:27.218Z,18.12
2022-09-21T17:30:56.139Z,18.10
2022-09-21T17:33:26.145Z,18.07
2022-09-21T17:35:56.522Z,18.04
2022-09-21T17:38:26.309Z,18.03
2022-09-21T17:40:55.194Z,18.02
2022-09-21T17:43:38.939Z,18.00
2022-09-21T17:46:15.862Z,18.03
2022-09-21T17:48:45.129Z,18.07
2022-09-21T17:51:35.164Z,18.10
2022-09-21T17:54:05.117Z,18.11
2022-09-21T17:56:45.003Z,18.13
2022-09-21T17:59:27.994Z,18.15
2022-09-21T18:01:59.395Z,18.19
2022-09-21T18:04:30.558Z,18.21
2022-09-21T18:07:00.427Z,18.24
2022-09-21T18:09:30.839Z,18.24
2022-09-21T18:12:46.365Z,18.18
2022-09-21T18:15:25.187Z,18.18
2022-09-21T18:18:17.202Z,18.11
2022-09-21T18:21:02.242Z,18.04
2022-09-21T18:23:42.253Z,18.00
2022-09-21T18:26:15.483Z,17.95
2022-09-21T18:28:47.336Z,17.90
2022-09-21T18:31:50.503Z,17.86
2022-09-21T18:34:48.969Z,17.86
2022-09-21T18:37:27.053Z,17.83
2022-09-21T18:40:04.307Z,17.80
2022-09-21T18:42:49.369Z,17.77
2022-09-21T18:45:25.456Z,17.73
2022-09-21T18:48:21.476Z,17.70
2022-09-21T18:50:59.794Z,17.64
2022-09-21T18:53:37.093Z,17.60
2022-09-21T18:56:08.415Z,17.59
2022-09-21T18:58:39.844Z,17.56
2022-09-21T19:01:12.212Z,17.54
2022-09-21T19:03:43.486Z,17.53
2022-09-21T19:06:32.698Z,17.52
2022-09-21T19:09:11.537Z,17.54
2022-09-21T19:11:47.937Z,17.56
2022-09-21T19:14:31.412Z,17.56
2022-09-21T19:17:17.729Z,17.57
2022-09-21T19:20:03.082Z,17.61
2022-09-21T19:22:44.875Z,17.62
2022-09-21T19:25:23.875Z,17.64
2022-09-21T19:27:59.536Z,17.68
2022-09-21T19:30:30.471Z,17.69
2022-09-21T19:33:00.611Z,17.72
2022-09-21T19:35:32.060Z,17.70
2022-09-21T19:38:02.560Z,17.71
2022-09-21T19:40:34.211Z,17.67
2022-09-21T19:43:23.773Z,17.64
2022-09-21T19:46:12.006Z,17.60
2022-09-21T19:48:45.301Z,17.58
2022-09-21T19:51:21.216Z,17.54
2022-09-21T19:54:14.479Z,17.53
2022-09-21T19:57:07.010Z,17.49
2022-09-21T19:59:45.577Z,17.47
2022-09-21T20:02:20.032Z,17.47
2022-09-21T20:04:57.342Z,17.44
2022-09-21T20:07:44.423Z,17.42
2022-09-21T20:10:43.286Z,17.36
2022-09-21T20:13:29.307Z,17.33
2022-09-21T20:16:06.251Z,17.31
2022-09-21T20:18:44.786Z,17.29
2022-09-21T20:21:18.899Z,17.24
2022-09-21T20:23:52.092Z,17.19
2022-09-21T20:26:26.462Z,17.08
2022-09-21T20:28:56.532Z,17.01
2022-09-21T20:31:26.888Z,16.95
2022-09-21T20:33:56.789Z,16.87
2022-09-21T20:36:25.261Z,16.80
2022-09-21T20:38:53.932Z,16.72
2022-09-21T20:41:24.523Z,16.66
2022-09-21T20:43:53.126Z,16.58
2022-09-21T20:46:21.644Z,16.52
2022-09-21T20:49:00.283Z,16.47
2022-09-21T20:51:30.050Z,16.40
2022-09-21T20:53:58.486Z,16.37
2022-09-21T20:56:26.948Z,16.35
2022-09-21T20:58:55.333Z,16.34
2022-09-21T21:01:24.898Z,16.34
2022-09-21T21:03:55.617Z,16.37
2022-09-21T21:06:24.065Z,16.40
2022-09-21T21:08:54.013Z,16.40
2022-09-21T21:11:22.482Z,16.42
2022-09-21T21:13:50.933Z,16.42
2022-09-21T21:16:19.440Z,16.42
2022-09-21T21:18:47.859Z,16.40
2022-09-21T21:21:16.276Z,16.36
2022-09-21T21:24:02.113Z,16.32
2022-09-21T21:26:57.405Z,16.26
2022-09-21T21:29:20.296Z,16.20
2022-09-21T21:31:49.388Z,16.15
2022-09-21T21:34:17.881Z,16.10
2022-09-21T21:36:46.432Z,16.07
2022-09-21T21:39:15.067Z,16.02
2022-09-21T21:41:44.901Z,15.98
2022-09-21T21:44:13.301Z,15.94
2022-09-21T21:46:41.693Z,15.90
2022-09-21T21:49:10.209Z,15.86
2022-09-21T21:51:38.774Z,15.82
2022-09-21T21:54:07.532Z,15.77
2022-09-21T21:56:35.989Z,15.74
2022-09-21T21:59:05.887Z,15.69
2022-09-21T22:01:34.437Z,15.65
2022-09-21T22:04:04.236Z,15.59
2022-09-21T22:06:34.797Z,15.59
2022-09-21T22:09:05.028Z,15.56
2022-09-21T22:11:34.707Z,15.53
2022-09-21T22:14:05.901Z,15.50
2022-09-21T22:16:36.611Z,15.49
2022-09-21T22:19:08.941Z,15.48
2022-09-21T22:21:42.409Z,15.50
2022-09-21T22:24:11.455Z,15.55
2022-09-21T22:26:42.419Z,15.58
2022-09-21T22:29:14.920Z,15.65
2022-09-21T22:31:46.174Z,15.70
2022-09-21T22:34:15.031Z,15.78
2022-09-21T22:36:44.629Z,15.85
2022-09-21T22:39:14.173Z,15.91
2022-09-21T22:41:43.767Z,15.96
2022-09-21T22:44:13.653Z,16.00
2022-09-21T22:46:42.103Z,16.04
2022-09-21T22:49:10.445Z,16.09
2022-09-21T22:51:39.097Z,16.14
2022-09-21T22:54:07.883Z,16.17
2022-09-21T22:56:36.552Z,16.20
2022-09-21T22:59:06.821Z,16.21
2022-09-21T23:01:39.100Z,16.23
2022-09-21T23:04:09.740Z,16.25
2022-09-21T23:06:40.419Z,16.26
2022-09-21T23:09:13.615Z,16.29
2022-09-21T23:11:47.447Z,16.30
2022-09-21T23:14:17.513Z,16.32
2022-09-21T23:16:47.941Z,16.34
2022-09-21T23:19:16.686Z,16.36
2022-09-21T23:21:49.613Z,16.35
2022-09-21T23:24:18.819Z,16.35
2022-09-21T23:26:48.250Z,16.34
2022-09-21T23:29:17.528Z,16.33
2022-09-21T23:31:47.429Z,16.32
2022-09-21T23:34:16.935Z,16.30
2022-09-21T23:36:46.474Z,16.29
2022-09-21T23:39:16.659Z,16.24
2022-09-21T23:41:45.962Z,16.16
2022-09-21T23:44:14.412Z,16.12
2022-09-21T23:46:43.243Z,16.05
2022-09-21T23:49:13.054Z,15.97
2022-09-21T23:51:41.812Z,15.90
2022-09-21T23:54:10.561Z,15.83
2022-09-21T23:56:39.063Z,15.75
2022-09-21T23:59:07.543Z,15.69
